TOURFACTS.DK  
Stats and Facts from Tour de France.

Tour de France 2019 starts in 348 days
  Riders   Stages   Teams   Summits   Yearly  


 
Search by year

After 2018 - Stage 14:
 15000 starters.
  5163 different riders.
  639 teams.
  2246 stages.
  456 restdays.
  441957.60 km.
  5678 abandonnees.


Top 3
GC
Christopher Froome86:20:55
Rigoberto Urán86:21:49
Romain Bardet86:23:15
Climb
Warren Barguil169 pt.
Primoz Roglic80 pt.
Thomas De Gendt64 pt.
Sprint
Michael Matthews359 pt.
André Greipel234 pt.
Edvald Boasson Hagen220 pt.
Youth
Simon Yates86:27:09
Louis Meintjes86:29:15
Emanuel Buchmann86:54:16
Facts from Tour de France 1935
  |   Stages.  |   Stage winners.  |   Days in yellow  |   Average speed.  |   Route.  |   Teams.  |   All riders.  |   Rookies.  |  

  |   Withdrawls.  |   GC.  |   Polka  |   Green  |   White  |   Summits. (In tour)  |   Miscellaneous.  |  

Stage 14b on July 19th. 1935
         Owning:    Romain Maes    
Pick a stage:  1 2 3 4 5a 5b 6 7 8 9 10 11 12 13a 13b 14a 14b 15 16 17 18a 18b 19a 19b 20a 20b 21
From: Narbonne    To: PerpignanDist:63.00 km.

Average speed for all riders in stage:  34,433 km./hr.
    Place:Name:Team:Time:Km/h:
FRAMaurice ArchambaudFRAFrance01:39:08  +  00:00:00=38,130 
BELRomain MaesBELBelgium01:41:59  +  00:02:51=37,065 
FRAGeorges SpeicherFRAFrance01:43:09  +  00:04:01=36,646 
4 ITAAmbrogio MorelliITACadetti Italiens01:43:12  +  00:04:04=36,628 
5 ITAVasco BergamaschiITAItaly01:43:23  +  00:04:15=36,563 
6 FRAAndré LeducqFRAFrance01:43:26  +  00:04:18=36,545 
7 FRABenoit FaureTouristes Routiers01:43:57  +  00:04:49=36,364 
8 BELJules LowieBELBelgium B01:45:01  +  00:05:53=35,994 
9 FRARené ViettoFRAFrance01:45:10  +  00:06:02=35,943 
10 GERGeorg UmbenhauerDEUGermany01:45:12  +  00:06:04=35,932 
11 GERGeorge HaendelDEUGermany B01:45:17  +  00:06:09=35,903 
12 FRAJulien MoineauFRAFrance B01:45:22  +  00:06:14=35,875 
13 FRAPaul ChocqueTouristes Routiers01:45:22  +  00:06:14=35,875 
14 FRAFernand FayolleTouristes Routiers01:45:59  +  00:06:51=35,666 
15 ESPManuel GarciaTouristes Routiers01:46:03  +  00:06:55=35,644 
16 ITAFrancesco CamussoITAItaly01:46:30  +  00:07:22=35,493 
17 FRAJean FontenayFRAFrance B01:46:59  +  00:07:51=35,333 
18 BELFélicien VervaeckeBELBelgium01:47:12  +  00:08:04=35,261 
19 BELSylvère MaesBELBelgium B01:47:12  +  00:08:04=35,261 
20 GEROskar ThierbachDEUGermany01:47:31  +  00:08:23=35,157 
21 FRARené BernardTouristes Routiers01:47:31  +  00:08:23=35,157 
22 FRAJoseph MauclairTouristes Routiers01:47:58  +  00:08:50=35,011 
23 FRAPierre-Marie CloarecTouristes Routiers01:48:01  +  00:08:53=34,995 
24 ESPSalvador CardonaESPSpain01:48:29  +  00:09:21=34,844 
25 FRAPierre CoganTouristes Routiers01:48:35  +  00:09:27=34,812 
26 BELAntoine DignefBELBelgium B01:49:04  +  00:09:56=34,658 
27 GERBruno RothDEUGermany B01:49:36  +  00:10:28=34,489 
28 ESPAntonio PriorESPSpain01:49:48  +  00:10:40=34,426 
29 ITALuigi GiacobbeITAItaly01:50:13  +  00:11:05=34,296 
30 SUIKurt StettlerCHESwitzerland01:50:34  +  00:11:26=34,188 
31 FRAGabriel RuozziTouristes Routiers01:50:59  +  00:11:51=34,059 
32 ITAPietro RimoldiITACadetti Italiens01:51:22  +  00:12:14=33,942 
33 FRAGeorges HubatzTouristes Routiers01:51:24  +  00:12:16=33,932 
34 SUILéo AmbergCHESwitzerland01:51:46  +  00:12:38=33,820 
35 GERGeorg StachDEUGermany B01:52:09  +  00:13:01=33,705 
36 ITAOreste BernardoniTouristes Routiers01:52:29  +  00:13:21=33,605 
37 FRAHonore GranierTouristes Routiers01:52:33  +  00:13:25=33,585 
38 GEROtto WeckerlingDEUGermany01:52:36  +  00:13:28=33,570 
39 BELJean AertsBELBelgium01:52:48  +  00:13:40=33,511 
40 FRACharles PelissierFRAFrance B01:53:04  +  00:13:56=33,432 
41 FRACharles BertyTouristes Routiers01:53:14  +  00:14:06=33,382 
42 BELLouis HardiquestBELBelgium01:53:21  +  00:14:13=33,348 
43 FRARené Le GrevesFRAFrance01:53:28  +  00:14:20=33,314 
44 ITAAldo BertoccoTouristes Routiers01:54:59  +  00:15:51=32,874 
45 GERWilly KutschbachDEUGermany01:55:12  +  00:16:04=32,813 
46 ITAOrlando TeaniITACadetti Italiens01:55:18  +  00:16:10=32,784 
47 FRALouis ThiétardTouristes Routiers01:55:30  +  00:16:22=32,727 
48 FRAGeorges LachatTouristes Routiers01:55:59  +  00:16:51=32,591 
49 ITADante GianelloTouristes Routiers01:56:13  +  00:17:05=32,525 
50 GERFerdinand IckesDEUGermany B01:56:57  +  00:17:49=32,322 
51 SUIFritz HartmannCHESwitzerland01:59:23  +  00:20:15=31,663 
52 ESPThéodore LadronTouristes Routiers01:59:54  +  00:20:46=31,526 
53 ESPVicente BacheroESPSpain B02:00:42  +  00:21:34=31,317 


Todays birthdays.

1877  Antoine Perrichon
1878  Auguste Berthault
1911  Théo Herckenrath
1924  Carlo Lafranchi
1931  Armand Di Caro
1937  Jean-Claude Lebaube
1951  Giovanni Battaglin
1961  Pascal Jules
1962  Jean-Claude Leclercq
1976  Janek Tombak
1978  Francisco Pérez
1983  Dries Devenyns




Visits: